Time;durP1;ratioP1;P1;durP2;ratioP2;P2;SDS_P1;SDS_P2;PMS_P1;PMS_P2;Temp;Humidity;BMP_temperature;BMP_pressure;BME280_temperature;BME280_humidity;BME280_pressure;Samples;Min_cycle;Max_cycle;Signal;HPM_P1;HPM_P2
2022/09/22 00:01:08;;;;;;;;;9.50;9.50;;;;;16.58;44.33;101586.69;5015658;28;45334;-58
2022/09/22 00:03:35;;;;;;;;;11.20;9.00;;;;;16.67;44.42;101604.72;5015366;28;46151;-58
2022/09/22 00:06:04;;;;;;;;;10.00;8.80;;;;;16.70;44.48;101615.31;4997468;28;45473;-58
2022/09/22 00:08:31;;;;;;;;;12.20;8.80;;;;;16.69;44.63;101610.03;4997882;28;45461;-59
2022/09/22 00:11:29;;;;;;;;;8.60;7.80;;;;;16.58;44.68;101609.72;5015414;28;45302;-59
2022/09/22 00:13:58;;;;;;;;;8.00;8.00;;;;;16.49;44.94;101589.78;4999456;28;46630;-58
2022/09/22 00:16:28;;;;;;;;;7.00;7.00;;;;;16.54;44.87;101614.00;5015029;28;45405;-58
2022/09/22 00:18:53;;;;;;;;;7.80;7.00;;;;;16.54;44.85;101622.31;5015324;28;45418;-58
2022/09/22 00:21:21;;;;;;;;;13.75;11.50;;;;;16.50;45.36;101613.63;4996723;28;45678;-59
2022/09/22 00:23:46;;;;;;;;;8.60;7.40;;;;;16.52;44.85;101617.03;5015149;28;45807;-58
2022/09/22 00:26:14;;;;;;;;;13.50;12.50;;;;;16.53;45.21;101613.19;4977237;28;46615;-59
2022/09/22 00:28:40;;;;;;;;;9.00;8.40;;;;;16.53;44.60;101609.56;4994045;28;45341;-59
2022/09/22 00:31:15;;;;;;;;;21.60;18.60;;;;;16.47;45.16;101605.78;4995402;28;45663;-59
2022/09/22 00:33:41;;;;;;;;;9.40;8.40;;;;;16.36;45.32;101601.00;4995115;28;46760;-58
2022/09/22 00:36:07;;;;;;;;;8.20;8.00;;;;;16.30;45.43;101611.09;4995099;28;45538;-59
2022/09/22 00:38:32;;;;;;;;;7.00;7.00;;;;;16.31;45.38;101612.78;4995536;28;45409;-59
2022/09/22 00:41:00;;;;;;;;;15.50;11.25;;;;;16.34;45.21;101609.53;4995485;28;45484;-59
2022/09/22 00:43:26;;;;;;;;;7.20;5.80;;;;;16.37;45.17;101613.78;4977397;28;47627;-59
2022/09/22 00:46:25;;;;;;;;;8.20;8.00;;;;;16.35;44.96;101611.25;4995105;28;45545;-58
2022/09/22 00:48:53;;;;;;;;;9.40;6.80;;;;;16.27;45.35;101594.91;4979334;28;45399;-59
2022/09/22 00:51:20;;;;;;;;;7.00;6.00;;;;;16.30;45.20;101608.31;4977703;28;45630;-59
2022/09/22 00:53:46;;;;;;;;;8.00;7.60;;;;;16.24;45.22;101606.47;4977580;28;45444;-58
2022/09/22 00:56:14;;;;;;;;;7.75;6.25;;;;;16.06;45.49;101585.97;4993548;28;45576;-59
2022/09/22 00:58:44;;;;;;;;;6.20;5.00;;;;;16.17;45.36;101602.91;4993658;28;45460;-59
2022/09/22 01:01:09;;;;;;;;;8.40;7.40;;;;;16.19;45.19;101609.06;4993919;28;45553;-58
2022/09/22 01:03:38;;;;;;;;;8.75;8.00;;;;;15.95;45.57;101575.66;4993247;28;46848;-59
2022/09/22 01:06:05;;;;;;;;;7.20;7.00;;;;;16.14;45.11;101604.22;4993972;28;46008;-57
2022/09/22 01:08:30;;;;;;;;;6.20;6.20;;;;;16.18;45.35;101604.63;4995097;28;45313;-58
2022/09/22 01:10:56;;;;;;;;;6.00;4.75;;;;;16.16;45.53;101604.00;4993476;28;45304;-58
2022/09/22 01:13:43;;;;;;;;;4.00;4.00;;;;;16.15;45.71;101599.50;4994781;28;47048;-58
2022/09/22 01:16:18;;;;;;;;;10.00;8.00;;;;;16.09;45.60;101590.22;4976813;28;45553;-58
2022/09/22 01:19:10;;;;;;;;;5.80;5.60;;;;;16.08;45.57;101589.38;4993797;28;45681;-58
2022/09/22 01:21:38;;;;;;;;;6.40;6.40;;;;;16.09;45.97;101593.84;4993520;28;45525;-58
2022/09/22 01:24:25;;;;;;;;;9.40;8.20;;;;;16.08;45.68;101589.38;4994792;28;45537;-57
2022/09/22 01:27:29;;;;;;;;;7.00;7.00;;;;;15.99;45.93;101587.97;4992967;28;45976;-58
2022/09/22 01:30:17;;;;;;;;;5.40;4.80;;;;;15.91;46.38;101582.69;4990717;28;45306;-58
2022/09/22 01:33:15;;;;;;;;;6.80;6.00;;;;;15.81;46.27;101583.22;4997244;28;45659;-58
2022/09/22 01:35:47;;;;;;;;;6.00;6.00;;;;;15.82;46.49;101585.75;4964431;28;45540;-59
2022/09/22 01:38:20;;;;;;;;;5.40;5.40;;;;;15.59;46.62;101554.00;4997943;28;45322;-59
2022/09/22 01:40:52;;;;;;;;;6.40;6.40;;;;;15.77;46.58;101584.72;4996837;28;45493;-58
2022/09/22 01:43:45;;;;;;;;;5.20;5.20;;;;;15.79;46.69;101580.66;4997303;28;45296;-58
2022/09/22 01:46:25;;;;;;;;;7.80;7.00;;;;;15.72;47.23;101582.63;4996604;28;45782;-57
2022/09/22 01:48:50;;;;;;;;;7.40;7.20;;;;;15.63;47.10;101559.09;4990187;28;45993;-59
2022/09/22 01:51:18;;;;;;;;;7.00;6.00;;;;;15.81;46.81;101584.03;5001925;28;45918;-58
2022/09/22 01:53:48;;;;;;;;;9.20;6.80;;;;;15.80;46.70;101576.81;5000513;28;45290;-57
2022/09/22 01:56:14;;;;;;;;;5.40;5.00;;;;;15.79;46.39;101575.13;4999769;28;45387;-58
2022/09/22 01:58:45;;;;;;;;;6.25;6.25;;;;;15.73;46.57;101559.41;5016400;28;45473;-58
2022/09/22 02:01:13;;;;;;;;;6.80;6.80;;;;;15.89;46.43;101587.63;4999958;28;45336;-58
2022/09/22 02:03:45;;;;;;;;;7.20;6.60;;;;;15.87;46.63;101587.84;5018063;28;45431;-58
2022/09/22 02:06:29;;;;;;;;;6.60;6.60;;;;;15.81;47.06;101586.81;5017276;28;45736;-57
2022/09/22 02:09:05;;;;;;;;;8.00;8.00;;;;;15.77;46.82;101568.97;5016134;28;45367;-58
2022/09/22 02:11:31;;;;;;;;;6.20;5.80;;;;;15.80;46.92;101587.06;5016348;28;45377;-58
2022/09/22 02:13:56;;;;;;;;;5.00;3.75;;;;;15.79;46.79;101585.38;5017636;28;45515;-58
2022/09/22 02:16:22;;;;;;;;;6.50;6.00;;;;;15.50;47.12;101538.78;5017281;28;45653;-58
2022/09/22 02:19:07;;;;;;;;;6.40;6.40;;;;;15.48;46.85;101540.91;5016311;28;45298;-58
2022/09/22 02:21:33;;;;;;;;;5.40;5.00;;;;;15.44;47.25;101534.97;5016820;28;45357;-57
2022/09/22 02:23:59;;;;;;;;;7.50;7.50;;;;;15.70;47.54;101571.78;5016661;28;45277;-58
2022/09/22 02:26:26;;;;;;;;;5.40;5.40;;;;;15.54;47.35;101570.44;5027477;28;45817;-58
2022/09/22 02:29:01;;;;;;;;;6.80;5.00;;;;;15.48;47.82;101560.25;5019130;28;45511;-57
2022/09/22 02:31:27;;;;;;;;;7.40;7.40;;;;;15.47;48.15;101568.81;5002753;28;45486;-57
2022/09/22 02:33:53;;;;;;;;;7.00;7.00;;;;;15.28;47.99;101555.75;5018902;28;45507;-58
2022/09/22 02:36:25;;;;;;;;;9.50;5.75;;;;;15.42;48.06;101570.31;5018485;28;46241;-57
2022/09/22 02:39:13;;;;;;;;;7.40;6.20;;;;;15.34;48.07;101573.38;5036835;28;45384;-58
2022/09/22 02:41:41;;;;;;;;;7.00;7.00;;;;;15.27;48.21;101553.22;5023314;28;45393;-58
2022/09/22 02:44:42;;;;;;;;;8.00;6.60;;;;;15.30;48.45;101564.66;5036449;28;45528;-58
2022/09/22 02:47:35;;;;;;;;;7.80;6.60;;;;;15.32;48.55;101568.06;4948392;28;46889;-59
2022/09/22 02:50:02;;;;;;;;;10.40;8.00;;;;;15.25;48.76;101560.84;5018407;28;45433;-59
2022/09/22 02:52:28;;;;;;;;;7.40;7.00;;;;;15.00;48.51;101522.97;5035559;28;45807;-58
2022/09/22 02:54:53;;;;;;;;;8.75;7.75;;;;;15.12;48.91;101550.75;5036571;28;45504;-58
2022/09/22 02:57:19;;;;;;;;;9.00;6.25;;;;;15.17;48.46;101551.75;5036068;28;45355;-59
2022/09/22 02:59:45;;;;;;;;;0.00;0.00;;;;;15.16;48.68;101554.78;5018823;28;45363;-59
2022/09/22 03:02:10;;;;;;;;;7.00;7.00;;;;;14.76;49.35;101497.81;5036429;28;45339;-59
2022/09/22 03:04:36;;;;;;;;;7.50;6.00;;;;;15.11;49.36;101560.13;5036424;28;45585;-59
2022/09/22 03:07:02;;;;;;;;;7.00;7.00;;;;;15.10;48.27;101555.66;5036207;28;46528;-58
2022/09/22 03:09:27;;;;;;;;;6.50;5.50;;;;;15.01;48.65;101541.25;5036405;28;45227;-58
2022/09/22 03:11:52;;;;;;;;;8.75;7.00;;;;;15.17;48.44;101550.94;5035895;28;45472;-58
2022/09/22 03:14:18;;;;;;;;;7.25;7.25;;;;;15.15;48.25;101531.81;5018792;28;45256;-58
2022/09/22 03:16:43;;;;;;;;;8.25;6.00;;;;;15.28;48.71;101550.22;5018131;28;45760;-58
2022/09/22 03:19:09;;;;;;;;;8.25;7.25;;;;;15.16;48.20;101518.84;5036209;28;45390;-58
2022/09/22 03:21:35;;;;;;;;;5.40;5.40;;;;;15.34;48.55;101551.25;5036028;28;45337;-58
2022/09/22 03:24:01;;;;;;;;;6.75;6.50;;;;;15.30;48.03;101549.97;5002157;28;45303;-59
2022/09/22 03:26:26;;;;;;;;;6.00;6.00;;;;;15.26;48.60;101535.75;5035733;28;46187;-59
2022/09/22 03:28:52;;;;;;;;;7.25;6.00;;;;;15.29;48.47;101540.84;5035930;28;45493;-58
2022/09/22 03:31:17;;;;;;;;;8.25;6.75;;;;;15.31;48.14;101535.06;5035839;28;45476;-59
2022/09/22 03:33:43;;;;;;;;;10.25;7.75;;;;;15.31;48.43;101535.06;5001953;28;45356;-58
2022/09/22 03:36:08;;;;;;;;;6.75;6.75;;;;;15.20;49.07;101536.66;5035690;28;46563;-58
2022/09/22 03:38:34;;;;;;;;;7.00;7.00;;;;;15.16;48.59;101533.50;5017403;28;45404;-58
2022/09/22 03:41:00;;;;;;;;;6.25;6.00;;;;;14.61;48.93;101463.03;5036052;28;45386;-59
2022/09/22 03:43:25;;;;;;;;;8.00;7.25;;;;;14.98;49.20;101539.78;5001444;28;45689;-58
2022/09/22 03:45:57;;;;;;;;;5.50;5.00;;;;;14.79;49.43;101513.09;5017499;28;45969;-58
2022/09/22 03:48:24;;;;;;;;;8.60;8.00;;;;;14.97;49.16;101535.31;5021943;28;45419;-58
2022/09/22 03:50:49;;;;;;;;;7.60;6.00;;;;;14.72;49.47;101497.38;5015444;28;45310;-58
2022/09/22 03:53:15;;;;;;;;;7.00;6.50;;;;;14.90;49.06;101542.81;5015714;28;45317;-57
2022/09/22 03:55:40;;;;;;;;;7.50;6.50;;;;;14.79;49.88;101533.31;5014428;28;46134;-57
2022/09/22 03:58:06;;;;;;;;;5.25;5.25;;;;;14.85;49.71;101531.56;5015646;28;45374;-59
2022/09/22 04:00:31;;;;;;;;;7.00;5.00;;;;;14.89;49.40;101533.66;5015665;28;45387;-58
2022/09/22 04:02:57;;;;;;;;;6.00;6.00;;;;;14.91;48.96;101534.28;5015794;28;45548;-58
2022/09/22 04:05:23;;;;;;;;;3.25;3.25;;;;;14.77;49.88;101516.94;4997855;28;45323;-58
2022/09/22 04:07:49;;;;;;;;;6.00;6.00;;;;;14.76;50.21;101529.06;5015112;28;45358;-58
2022/09/22 04:10:14;;;;;;;;;6.50;6.00;;;;;14.76;50.14;101523.53;5004380;28;45940;-58
2022/09/22 04:12:40;;;;;;;;;11.75;8.00;;;;;14.70;49.74;101513.34;5035519;28;45609;-58
2022/09/22 04:15:06;;;;;;;;;5.50;5.00;;;;;14.81;50.03;101522.88;5035293;28;45741;-57
2022/09/22 04:17:31;;;;;;;;;10.00;7.25;;;;;14.86;49.66;101524.97;5034878;28;45456;-57
2022/09/22 04:19:58;;;;;;;;;8.00;8.00;;;;;14.83;49.93;101525.44;5017670;28;45378;-57
2022/09/22 04:22:23;;;;;;;;;6.20;6.20;;;;;14.80;49.56;101515.66;5035277;28;45619;-58
2022/09/22 04:24:49;;;;;;;;;7.50;6.50;;;;;14.74;49.47;101503.56;5035280;28;45710;-58
2022/09/22 04:27:15;;;;;;;;;8.75;6.00;;;;;14.25;49.87;101424.97;5017311;28;45402;-58
2022/09/22 04:29:40;;;;;;;;;5.00;5.00;;;;;14.64;49.78;101483.84;5017564;28;45338;-58
2022/09/22 04:32:05;;;;;;;;;9.00;9.00;;;;;14.90;49.25;101520.69;5017442;28;45343;-57
2022/09/22 04:34:31;;;;;;;;;9.00;6.50;;;;;14.91;49.43;101519.63;5035113;28;45414;-57
2022/09/22 04:36:56;;;;;;;;;5.00;5.00;;;;;14.84;50.05;101519.66;5035115;28;45255;-56
2022/09/22 04:39:22;;;;;;;;;6.75;6.00;;;;;14.73;49.65;101489.94;5035563;28;45308;-57
2022/09/22 04:41:47;;;;;;;;;6.25;6.25;;;;;14.34;49.30;101412.59;5035339;28;45604;-58
2022/09/22 04:44:13;;;;;;;;;7.75;6.00;;;;;14.88;49.50;101520.06;5034888;28;45358;-58
2022/09/22 04:46:38;;;;;;;;;8.25;6.00;;;;;14.85;49.52;101515.84;5034907;28;45205;-56
2022/09/22 04:49:04;;;;;;;;;6.00;5.25;;;;;14.76;49.14;101489.53;5017916;28;45364;-58
2022/09/22 04:51:29;;;;;;;;;6.75;6.75;;;;;14.73;49.25;101492.72;5015276;28;45530;-57
2022/09/22 04:53:55;;;;;;;;;7.00;7.00;;;;;14.82;49.04;101496.06;5014926;28;45389;-58
2022/09/22 04:56:20;;;;;;;;;8.50;8.50;;;;;14.89;49.45;101511.56;5014960;28;45388;-59
2022/09/22 04:58:46;;;;;;;;;6.00;6.00;;;;;14.88;49.04;101509.88;5015200;28;45878;-59
2022/09/22 05:01:11;;;;;;;;;6.00;5.75;;;;;14.85;49.37;101501.16;4980600;28;45638;-59
2022/09/22 05:03:37;;;;;;;;;8.75;6.75;;;;;14.91;49.39;101517.69;5014691;28;46465;-58
2022/09/22 05:06:06;;;;;;;;;9.75;7.00;;;;;14.89;49.19;101510.72;5014887;28;45457;-57
2022/09/22 05:08:32;;;;;;;;;9.00;9.00;;;;;14.91;49.27;101511.34;4983950;28;45189;-58
2022/09/22 05:10:58;;;;;;;;;8.25;6.25;;;;;14.87;49.34;101512.84;5018764;28;45583;-57
2022/09/22 05:13:24;;;;;;;;;6.00;6.00;;;;;14.87;49.57;101526.66;4994604;28;46005;-58
2022/09/22 05:15:50;;;;;;;;;7.00;7.00;;;;;14.86;49.73;101522.19;5018007;28;45438;-57
2022/09/22 05:18:15;;;;;;;;;8.75;8.75;;;;;14.73;49.90;101518.41;5000423;28;45347;-58
2022/09/22 05:20:42;;;;;;;;;9.00;9.00;;;;;14.66;50.77;101522.31;5018762;28;45343;-58
2022/09/22 05:23:08;;;;;;;;;9.60;9.60;;;;;14.69;51.35;101521.84;5000527;28;46326;-56
2022/09/22 05:25:33;;;;;;;;;14.25;12.00;;;;;14.69;51.25;101536.53;4999851;28;45514;-58
2022/09/22 05:27:59;;;;;;;;;15.75;10.25;;;;;14.66;51.73;101528.66;5017997;28;45373;-56
2022/09/22 05:30:25;;;;;;;;;8.75;8.50;;;;;14.70;52.04;101542.88;5000474;28;45339;-54
2022/09/22 05:32:50;;;;;;;;;12.75;11.25;;;;;14.71;51.77;101539.91;4999514;28;46583;-55
2022/09/22 05:35:18;;;;;;;;;13.50;12.00;;;;;14.66;52.62;101536.94;5017841;28;45347;-55
2022/09/22 05:37:44;;;;;;;;;13.40;11.40;;;;;14.64;52.07;101547.38;5018161;28;45323;-59
2022/09/22 05:40:11;;;;;;;;;16.00;14.00;;;;;14.43;52.39;101519.00;5017945;28;45440;-58
2022/09/22 05:42:46;;;;;;;;;15.40;13.00;;;;;14.56;52.47;101547.63;5017549;28;45461;-57
2022/09/22 05:45:12;;;;;;;;;13.80;13.80;;;;;14.45;52.72;101536.19;5017513;28;45406;-58
2022/09/22 05:47:38;;;;;;;;;16.00;13.20;;;;;14.53;52.62;101550.81;4999923;28;45437;-59
2022/09/22 05:50:04;;;;;;;;;16.75;13.75;;;;;14.47;53.28;101553.38;5000354;28;45444;-59
2022/09/22 05:52:30;;;;;;;;;12.80;11.60;;;;;14.47;52.97;101549.78;4999781;28;45405;-59
2022/09/22 05:54:56;;;;;;;;;15.00;11.75;;;;;14.49;53.03;101555.94;4999993;28;45390;-58
2022/09/22 05:57:24;;;;;;;;;13.75;11.25;;;;;14.24;52.69;101509.72;5017863;28;45353;-59
2022/09/22 05:59:50;;;;;;;;;11.60;9.00;;;;;14.41;53.49;101534.91;5017516;28;45651;-59
2022/09/22 06:02:16;;;;;;;;;11.40;8.80;;;;;13.99;53.46;101473.69;5017206;28;46599;-59
2022/09/22 06:04:41;;;;;;;;;15.75;13.25;;;;;14.48;53.41;101551.47;5017814;28;45406;-59
2022/09/22 06:07:07;;;;;;;;;13.00;13.00;;;;;14.49;53.10;101553.16;5017475;28;45363;-59
2022/09/22 06:09:32;;;;;;;;;16.00;13.75;;;;;14.34;53.46;101532.19;5017627;28;45361;-59
2022/09/22 06:11:58;;;;;;;;;14.50;12.75;;;;;14.50;53.30;101552.09;4982905;28;47071;-58
2022/09/22 06:14:23;;;;;;;;;17.75;15.50;;;;;14.48;53.01;101555.06;5016984;28;45515;-58
2022/09/22 06:16:49;;;;;;;;;22.25;18.50;;;;;14.10;53.32;101492.38;5017441;28;45363;-59
2022/09/22 06:19:14;;;;;;;;;14.25;12.25;;;;;14.46;53.35;101551.69;5016550;28;45592;-58
2022/09/22 06:21:40;;;;;;;;;13.00;11.00;;;;;14.39;53.82;101536.19;5017083;28;46257;-59
2022/09/22 06:24:05;;;;;;;;;12.25;12.25;;;;;14.38;53.41;101529.84;4999352;28;45370;-59
2022/09/22 06:26:31;;;;;;;;;12.25;12.25;;;;;14.50;53.62;101541.91;5016759;28;45192;-59
2022/09/22 06:28:57;;;;;;;;;13.00;12.00;;;;;14.53;53.44;101542.53;5017199;28;45303;-58
2022/09/22 06:31:23;;;;;;;;;13.00;10.75;;;;;14.49;52.73;101537.47;5016945;28;45691;-58
2022/09/22 06:33:49;;;;;;;;;15.75;14.75;;;;;14.59;53.19;101539.75;5016851;28;45312;-58
2022/09/22 06:36:19;;;;;;;;;15.25;15.00;;;;;14.57;53.00;101535.50;5016922;28;45232;-58
2022/09/22 06:38:45;;;;;;;;;15.00;14.00;;;;;14.61;52.89;101539.50;5017141;28;45557;-59
2022/09/22 06:41:10;;;;;;;;;15.75;14.00;;;;;14.60;52.96;101538.69;4999128;28;45404;-58
2022/09/22 06:43:36;;;;;;;;;14.00;12.25;;;;;14.54;53.17;101534.03;5016716;28;45356;-58
2022/09/22 06:46:02;;;;;;;;;14.80;12.60;;;;;14.31;53.12;101488.44;5016829;28;45178;-59
2022/09/22 06:48:28;;;;;;;;;16.50;13.25;;;;;14.60;53.34;101535.06;5017004;28;45338;-60
2022/09/22 06:50:53;;;;;;;;;19.00;14.75;;;;;14.60;52.82;101535.06;5016426;28;45541;-58
2022/09/22 06:53:19;;;;;;;;;17.25;16.00;;;;;14.59;53.20;101533.38;4998873;28;45407;-58
2022/09/22 06:55:45;;;;;;;;;22.00;17.00;;;;;14.53;53.20;101526.81;4999318;28;45443;-58
2022/09/22 06:58:11;;;;;;;;;15.75;14.75;;;;;14.49;53.02;101520.88;4998739;28;45406;-59
2022/09/22 07:00:37;;;;;;;;;16.00;16.00;;;;;14.59;53.36;101539.75;4966043;28;46316;-59
2022/09/22 07:03:07;;;;;;;;;18.25;15.50;;;;;14.61;53.55;101543.13;4998558;28;45467;-59
2022/09/22 07:05:33;;;;;;;;;15.60;15.60;;;;;14.53;53.29;101529.59;4998722;28;45445;-58
2022/09/22 07:07:59;;;;;;;;;18.40;16.60;;;;;14.01;53.51;101446.72;5016584;28;45514;-57
2022/09/22 07:10:24;;;;;;;;;20.25;17.25;;;;;14.45;53.50;101511.34;4997705;28;48401;-57
2022/09/22 07:12:50;;;;;;;;;21.00;18.75;;;;;14.64;53.71;101547.38;5016120;28;45473;-59
2022/09/22 07:15:16;;;;;;;;;20.25;18.00;;;;;14.52;53.28;101515.97;4998572;28;45295;-59
2022/09/22 07:17:41;;;;;;;;;20.00;19.00;;;;;14.64;53.49;101533.56;5016552;28;45882;-60
2022/09/22 07:20:07;;;;;;;;;20.25;18.75;;;;;14.70;53.47;101545.63;4998507;28;45482;-56
2022/09/22 07:22:35;;;;;;;;;16.25;15.75;;;;;14.73;53.05;101546.03;5015871;28;45401;-59
2022/09/22 07:25:01;;;;;;;;;20.60;18.00;;;;;14.61;53.02;101525.69;4998550;28;45209;-58
2022/09/22 07:27:26;;;;;;;;;20.00;18.20;;;;;14.78;53.32;101542.66;4998148;28;45257;-58
2022/09/22 07:29:53;;;;;;;;;23.75;16.75;;;;;14.78;53.05;101542.66;4977899;28;46287;-59
2022/09/22 07:32:20;;;;;;;;;15.80;15.60;;;;;14.68;53.06;101514.63;4978623;28;45387;-58
2022/09/22 07:34:47;;;;;;;;;22.20;17.40;;;;;14.79;53.02;101533.31;4996400;28;45473;-58
2022/09/22 07:37:14;;;;;;;;;19.80;19.80;;;;;14.87;52.89;101544.09;4995924;28;45604;-58
2022/09/22 07:39:44;;;;;;;;;21.50;18.50;;;;;14.84;52.98;101536.22;4962191;28;46327;-57
2022/09/22 07:42:10;;;;;;;;;22.20;22.00;;;;;14.87;52.47;101541.34;4995572;28;45338;-58
2022/09/22 07:48:34;;;;;;;;;20.20;17.00;;;;;15.13;50.85;101541.38;4996713;28;45730;-61
2022/09/22 07:50:05;;;;;;;;;22.60;18.00;;;;;15.18;50.91;101539.66;5015398;28;45556;-59
2022/09/22 07:52:32;;;;;;;;;23.50;19.25;;;;;15.22;50.50;101539.19;5015061;28;45796;-60
2022/09/22 07:54:58;;;;;;;;;23.80;22.60;;;;;15.26;50.42;101548.75;4998201;28;45441;-60
2022/09/22 07:57:23;;;;;;;;;17.50;16.00;;;;;15.30;50.63;101545.31;5015703;28;45301;-61
2022/09/22 07:59:49;;;;;;;;;19.25;14.75;;;;;15.21;49.61;101520.91;5015195;28;46139;-61
2022/09/22 08:02:14;;;;;;;;;20.75;18.00;;;;;15.11;49.81;101491.00;4997406;28;45422;-61
2022/09/22 08:04:40;;;;;;;;;16.75;16.50;;;;;15.32;49.90;101525.72;4998160;28;45351;-60
2022/09/22 08:07:06;;;;;;;;;21.00;18.25;;;;;15.42;49.21;101541.81;4997803;28;45410;-60
2022/09/22 08:09:32;;;;;;;;;14.00;14.00;;;;;15.39;49.78;101532.06;5015210;28;46303;-60
2022/09/22 08:11:58;;;;;;;;;15.20;15.00;;;;;15.36;49.62;101526.13;5015084;28;45445;-59
2022/09/22 08:14:24;;;;;;;;;17.40;14.60;;;;;15.41;49.21;101535.44;5015257;28;45433;-59
2022/09/22 08:16:52;;;;;;;;;20.60;15.20;;;;;15.41;48.97;101531.81;4981261;28;45615;-58
2022/09/22 08:19:17;;;;;;;;;17.80;15.40;;;;;15.38;48.49;101521.22;5014843;28;45592;-60
2022/09/22 08:21:44;;;;;;;;;16.50;15.00;;;;;15.24;48.26;101496.44;5015129;28;45509;-59
2022/09/22 08:24:12;;;;;;;;;18.00;16.00;;;;;15.50;48.10;101536.00;5015029;28;45413;-62
2022/09/22 08:26:38;;;;;;;;;18.60;15.60;;;;;15.55;48.70;101536.19;4997648;28;45556;-58
2022/09/22 08:29:04;;;;;;;;;14.60;14.60;;;;;15.59;48.72;101533.81;4997359;28;45731;-60
2022/09/22 08:31:30;;;;;;;;;16.75;15.75;;;;;15.59;47.93;101533.81;4962688;28;45617;-60
2022/09/22 08:33:55;;;;;;;;;12.50;11.50;;;;;15.63;48.17;101535.03;5014972;28;45443;-59
2022/09/22 08:36:22;;;;;;;;;17.50;14.75;;;;;15.63;47.51;101531.44;5015426;28;45420;-61
2022/09/22 08:38:48;;;;;;;;;11.20;10.20;;;;;15.69;47.32;101539.66;5015099;28;45452;-60
2022/09/22 08:41:25;;;;;;;;;12.00;10.20;;;;;15.73;46.55;101534.50;5014260;28;45334;-61
2022/09/22 08:43:54;;;;;;;;;11.00;10.00;;;;;15.68;47.12;101521.38;5014874;28;45207;-61
2022/09/22 08:46:40;;;;;;;;;7.60;7.60;;;;;15.80;46.72;101523.41;5015432;28;45552;-58
2022/09/22 08:52:24;;;;;;;;;11.40;9.40;;;;;15.85;45.67;101526.34;4994159;28;45220;-61
2022/09/22 08:54:49;;;;;;;;;9.00;8.00;;;;;15.87;45.81;101515.88;5012494;28;45909;-62
2022/09/22 08:57:21;;;;;;;;;7.00;7.00;;;;;15.96;45.82;101522.00;4996644;28;45755;-60
2022/09/22 09:00:05;;;;;;;;;8.40;8.40;;;;;16.00;44.96;101534.28;5013979;28;45648;-62
2022/09/22 09:02:35;;;;;;;;;7.80;7.00;;;;;15.84;44.84;101505.25;4965881;28;45815;-63
2022/09/22 09:05:38;;;;;;;;;9.20;9.20;;;;;15.98;45.63;101526.22;5010602;28;45539;-59
2022/09/22 09:08:15;;;;;;;;;9.20;9.20;;;;;15.74;45.62;101471.72;5020104;28;45485;-60
2022/09/22 09:10:47;;;;;;;;;10.00;10.00;;;;;15.95;45.57;101498.97;5032111;28;46969;-59
2022/09/22 09:13:36;;;;;;;;;12.80;11.00;;;;;15.64;45.72;101436.28;5010823;28;45419;-62
2022/09/22 09:16:19;;;;;;;;;15.60;14.20;;;;;16.07;46.03;101504.59;5013220;28;45302;-61
2022/09/22 09:18:53;;;;;;;;;17.00;14.00;;;;;16.33;45.76;101530.28;5012387;28;45414;-61
2022/09/22 09:21:18;;;;;;;;;17.00;16.00;;;;;16.35;45.82;101522.63;5028750;28;45698;-62
2022/09/22 09:23:45;;;;;;;;;14.25;12.75;;;;;16.46;45.67;101525.66;4998474;28;45502;-62
2022/09/22 09:26:11;;;;;;;;;17.60;17.60;;;;;16.54;45.62;101530.88;5005911;28;45398;-62
2022/09/22 09:28:45;;;;;;;;;23.40;20.20;;;;;16.38;45.08;101488.88;4975329;28;45373;-61
2022/09/22 09:31:37;;;;;;;;;21.20;18.60;;;;;16.62;44.17;101511.19;4976224;28;46562;-63
2022/09/22 09:34:05;;;;;;;;;22.00;18.60;;;;;16.62;44.71;101493.69;4986294;28;45385;-62
2022/09/22 09:36:36;;;;;;;;;16.80;14.40;;;;;16.89;44.57;101521.03;4971804;28;45366;-61
2022/09/22 09:39:25;;;;;;;;;20.60;17.20;;;;;16.98;44.19;101518.78;4956386;28;45489;-60
2022/09/22 09:41:50;;;;;;;;;15.00;11.60;;;;;17.11;43.24;101520.53;4966660;28;45452;-61
2022/09/22 09:44:26;;;;;;;;;11.50;10.50;;;;;17.20;42.39;101522.72;4983876;28;45427;-63
2022/09/22 09:47:10;;;;;;;;;8.60;8.60;;;;;17.31;42.02;101523.00;5013111;28;45425;-62
2022/09/22 09:49:36;;;;;;;;;18.00;12.80;;;;;17.40;41.70;101507.69;4995242;28;45507;-63
2022/09/22 09:52:01;;;;;;;;;11.50;11.50;;;;;17.51;42.45;101506.03;4992487;28;46431;-61
2022/09/22 09:54:27;;;;;;;;;18.50;17.00;;;;;17.46;41.66;101487.31;4968760;28;45862;-61
2022/09/22 09:57:08;;;;;;;;;16.25;15.00;;;;;17.64;41.16;101502.16;4984395;28;45509;-61
2022/09/22 10:02:22;;;;;;;;;11.20;11.20;;;;;17.80;41.28;101496.94;4984969;28;45811;-61
2022/09/22 10:04:53;;;;;;;;;30.80;27.60;;;;;17.84;40.95;101484.28;4995669;28;45421;-61
2022/09/22 10:07:27;;;;;;;;;13.60;12.00;;;;;17.97;40.32;101486.81;4996473;28;45440;-61
2022/09/22 10:09:53;;;;;;;;;12.60;9.40;;;;;18.06;40.07;101487.31;5010666;28;45633;-61
2022/09/22 10:12:22;;;;;;;;;11.20;10.40;;;;;18.17;40.04;101479.19;5014427;28;45959;-61
2022/09/22 10:14:52;;;;;;;;;7.80;6.80;;;;;18.19;39.78;101469.50;5014234;28;45403;-62
2022/09/22 10:17:33;;;;;;;;;9.00;9.00;;;;;18.29;39.50;101472.50;4998630;28;45387;-61
2022/09/22 10:20:21;;;;;;;;;11.00;10.20;;;;;18.48;39.43;101486.22;5012938;28;45406;-61
2022/09/22 10:22:47;;;;;;;;;6.40;6.40;;;;;18.54;38.85;101471.34;4999285;28;46117;-61
2022/09/22 10:25:31;;;;;;;;;8.00;8.00;;;;;18.63;37.39;101476.50;4996965;28;45537;-61
2022/09/22 10:28:17;;;;;;;;;8.80;7.60;;;;;18.75;37.58;101468.94;5015698;28;45437;-60
2022/09/22 10:30:44;;;;;;;;;8.20;7.20;;;;;18.85;37.49;101476.63;5017442;28;45450;-60
2022/09/22 10:33:21;;;;;;;;;6.80;6.80;;;;;18.93;37.45;101470.66;4998838;28;45449;-62
2022/09/22 10:35:54;;;;;;;;;8.40;7.00;;;;;18.96;37.22;101453.44;5016431;28;45403;-61
2022/09/22 10:38:25;;;;;;;;;6.60;5.60;;;;;19.19;37.11;101459.16;5016923;28;45480;-60
2022/09/22 10:41:11;;;;;;;;;8.40;7.20;;;;;19.28;36.79;101466.00;5016902;28;45607;-59
2022/09/22 10:44:13;;;;;;;;;5.00;5.00;;;;;19.37;36.37;101456.13;5015162;28;46346;-61
2022/09/22 10:47:00;;;;;;;;;7.80;7.00;;;;;19.50;36.25;101460.50;5016901;28;45400;-61
2022/09/22 10:49:49;;;;;;;;;8.80;6.20;;;;;19.45;36.01;101428.94;4987072;28;45368;-61
2022/09/22 10:53:01;;;;;;;;;9.00;7.60;;;;;19.71;35.89;101448.81;4997266;28;45388;-61
2022/09/22 10:55:32;;;;;;;;;5.00;5.00;;;;;19.84;35.66;101439.25;4996351;28;45599;-59
2022/09/22 10:58:05;;;;;;;;;5.40;5.20;;;;;19.92;34.55;101424.88;4986939;28;45705;-60
2022/09/22 11:00:40;;;;;;;;;6.00;3.80;;;;;19.94;33.64;101430.19;5016196;28;45331;-60
2022/09/22 11:03:32;;;;;;;;;4.60;4.60;;;;;20.01;34.73;101436.44;4982328;28;45725;-58
2022/09/22 11:12:18;;;;;;;;;4.00;3.40;;;;;20.38;32.45;101432.13;5016390;28;45453;-59
2022/09/22 11:15:23;;;;;;;;;2.60;2.00;;;;;20.35;32.23;101396.41;5000907;28;45423;-59
2022/09/22 11:18:03;;;;;;;;;4.00;2.60;;;;;20.50;31.24;101421.69;5000787;28;45428;-60
2022/09/22 11:20:55;;;;;;;;;2.40;1.80;;;;;20.65;32.41;101422.94;4998645;28;45273;-59
2022/09/22 11:24:18;;;;;;;;;1.80;1.80;;;;;20.72;31.02;101420.78;4991693;28;45446;-59
2022/09/22 11:26:58;;;;;;;;;2.80;2.80;;;;;20.87;32.24;101422.91;4943734;28;45618;-60
2022/09/22 11:29:26;;;;;;;;;1.40;1.40;;;;;20.96;32.00;101409.28;4938765;28;46998;-59
2022/09/22 11:32:03;;;;;;;;;2.00;1.20;;;;;21.04;32.18;101414.41;4972731;28;45463;-60
2022/09/22 11:34:51;;;;;;;;;3.80;3.80;;;;;21.02;32.27;101407.41;5015913;28;45283;-58
2022/09/22 11:37:38;;;;;;;;;2.00;2.00;;;;;21.14;32.34;101405.25;4998309;28;45420;-59
2022/09/22 11:40:07;;;;;;;;;3.80;3.80;;;;;21.07;32.67;101394.31;5005404;28;46212;-59
2022/09/22 11:42:46;;;;;;;;;3.40;2.80;;;;;21.29;32.24;101409.25;5015892;28;45424;-59
2022/09/22 11:45:42;;;;;;;;;3.80;2.80;;;;;21.32;32.82;101403.13;4998179;28;45350;-59
2022/09/22 11:48:37;;;;;;;;;4.40;3.60;;;;;21.44;32.09;101400.97;4998079;28;45457;-61
2022/09/22 11:51:25;;;;;;;;;2.00;2.00;;;;;21.58;32.11;101400.50;4994534;28;46302;-61